Gilman, IA (50106)

10:54 AM CDT on June 02, 2015 (GMT -0500)
Grinnell Weather.com | | Change Station
CLOSE
Current Station
Personal Weather Station
Location: Grinnell, IA
Elevation: 1014 ft
Nearby Weather Stations

Elev 1014 ft 41.75 °N, 92.70 °W | Updated 17 seconds ago

Overcast
Overcast
63.8 °F
Feels Like 63.8 °F
N
6.2
Wind Variable Wind from South
Gusts 8.1 mph

Today
High -- | Low -- °F
--% Chance of Precip.
Yesterday
High -- | Low -- °F
Precip. -- in
5:38 AM 8:40 PM
Full, 100% visible
Pressure 30.11 in
Visibility 10.0 miles
Clouds Scattered Clouds 2000 ft
Overcast 2700 ft
Dew Point 56 °F
Humidity 76%
Rainfall 0.00 in
Snow Depth Not available.
UV 4.9 out of 12
Pollen 7.00 out of 12
Air Quality Not available.
Flu Activity No Activity
METAR KGGI 021535Z AUTO 14010KT 10SM SCT020 OVC027 17/13 A3011 RMK AO2 T01710126

More Conditions Fewer Conditions

Pressure 30.11 in
Visibility 10.0 miles
Clouds Scattered Clouds 2000 ft
Overcast 2700 ft
Dew Point 56 °F
Humidity 76%
Rainfall 0.00 in
Snow Depth Not available.
UV 4.9 out of 12
Pollen 7.00 out of 12
Air Quality Not available.
Flu Activity No Activity
METAR KGGI 021535Z AUTO 14010KT 10SM SCT020 OVC027 17/13 A3011 RMK AO2 T01710126

More Conditions Fewer Conditions

10-Day Weather Forecast

Almanac

Astronomy

Jun. 02, 2015 Rise Set
Actual Time
Civil Twilight
Nautical Twilight
Astronomical Twilight
Moon
Length of Visible Light
Length of Day
Tomorrow will be .
, % of the Moon is Illuminated

Today's Extremes

State Highs State Lows

Community

WunderPhotos

Upload Photos

1,825,966 photos uploaded!

WunderBlogs® & News

Nearby

Air Quality

  Air Quality AQ Index Pollutant
Not available.

Snow Depth

Station Depth Elevation

Earthquake Activity

City Distance Mag. Time & Date
Minimum magnitude displayed is 2.5.

Coastal Water Temperatures

Place Temperature

Stations

Nearby Weather Stations

Station Location Temp. Windchill Dew Point Humidity Wind Precip. Elev Updated Type